createdAt,value
2016-11-13T00:01:03.030Z,0
2016-11-13T00:02:15.548Z,0
2016-11-13T00:03:28.777Z,0
2016-11-13T00:04:42.334Z,0
2016-11-13T00:06:26.556Z,0
2016-11-13T00:07:39.566Z,0
2016-11-13T00:08:53.122Z,0
2016-11-13T00:10:06.657Z,0
2016-11-13T00:11:20.238Z,0
2016-11-13T00:12:33.199Z,0
2016-11-13T00:13:46.669Z,0
2016-11-13T00:15:00.230Z,0
2016-11-13T00:16:13.758Z,0
2016-11-13T00:17:26.750Z,0
2016-11-13T00:18:40.223Z,0
2016-11-13T00:19:53.521Z,0
2016-11-13T00:21:07.035Z,0
2016-11-13T00:22:20.630Z,0
2016-11-13T00:23:33.727Z,0
2016-11-13T00:24:46.787Z,0
2016-11-13T00:26:00.372Z,0
2016-11-13T00:27:13.341Z,0
2016-11-13T00:28:26.616Z,0
2016-11-13T00:29:40.165Z,0
2016-11-13T00:30:53.489Z,0
2016-11-13T00:32:07.027Z,0
2016-11-13T00:33:20.296Z,0
2016-11-13T00:34:33.314Z,0
2016-11-13T00:35:46.829Z,0
2016-11-13T00:37:00.420Z,0
2016-11-13T00:38:13.444Z,0
2016-11-13T00:39:27.219Z,4
2016-11-13T00:40:40.286Z,4
2016-11-13T00:41:52.772Z,4
2016-11-13T00:43:06.385Z,4
2016-11-13T00:44:19.345Z,4
2016-11-13T00:45:32.426Z,0
2016-11-13T00:46:45.989Z,4
2016-11-13T00:47:59.015Z,0
2016-11-13T00:49:12.608Z,0
2016-11-13T00:50:25.681Z,0
2016-11-13T00:51:39.223Z,0
2016-11-13T00:52:52.263Z,0
2016-11-13T00:54:05.870Z,0
2016-11-13T00:55:19.524Z,0
2016-11-13T00:56:33.001Z,0
2016-11-13T00:57:46.061Z,0
2016-11-13T00:58:59.041Z,0
2016-11-13T01:00:12.302Z,0
2016-11-13T01:01:25.922Z,0
2016-11-13T01:02:39.474Z,0
2016-11-13T01:03:52.542Z,0
2016-11-13T01:05:06.151Z,4
2016-11-13T01:06:19.724Z,4
2016-11-13T01:07:33.339Z,4
2016-11-13T01:08:46.874Z,0
2016-11-13T01:10:00.365Z,0
2016-11-13T01:11:12.804Z,0
2016-11-13T01:12:25.367Z,0
2016-11-13T01:13:38.937Z,0
2016-11-13T01:14:52.006Z,0
2016-11-13T01:16:05.589Z,0
2016-11-13T01:17:19.136Z,0
2016-11-13T01:18:32.641Z,0
2016-11-13T01:19:46.232Z,0
2016-11-13T01:20:59.849Z,0
2016-11-13T01:22:13.363Z,0
2016-11-13T01:23:27.172Z,0
2016-11-13T01:24:40.275Z,0
2016-11-13T01:25:54.059Z,0
2016-11-13T01:27:06.841Z,0
2016-11-13T01:28:20.197Z,0
2016-11-13T01:29:33.820Z,0
2016-11-13T01:30:46.310Z,0
2016-11-13T01:31:58.766Z,0
2016-11-13T01:33:12.461Z,0
2016-11-13T01:34:25.549Z,0
2016-11-13T01:35:39.139Z,0
2016-11-13T01:36:52.450Z,0
2016-11-13T01:38:05.436Z,0
2016-11-13T01:39:18.668Z,0
2016-11-13T01:40:31.660Z,0
2016-11-13T01:41:45.254Z,0
2016-11-13T01:42:58.570Z,0
2016-11-13T01:44:11.108Z,0
2016-11-13T01:45:24.082Z,0
2016-11-13T01:46:37.131Z,0
2016-11-13T01:47:50.220Z,0
2016-11-13T01:49:03.798Z,0
2016-11-13T01:50:17.368Z,0
2016-11-13T01:51:30.962Z,0
2016-11-13T01:52:44.546Z,0
2016-11-13T01:53:57.880Z,0
2016-11-13T01:55:10.968Z,0
2016-11-13T01:56:24.541Z,0
2016-11-13T01:57:37.834Z,0
2016-11-13T01:58:51.190Z,0
2016-11-13T02:00:04.801Z,0
2016-11-13T02:01:18.408Z,0
2016-11-13T02:02:32.028Z,0
2016-11-13T02:03:45.649Z,0
2016-11-13T02:04:58.684Z,0
2016-11-13T02:06:11.687Z,0
2016-11-13T02:07:25.458Z,0
2016-11-13T02:08:38.996Z,0
2016-11-13T02:09:52.576Z,0
2016-11-13T02:11:05.552Z,0
2016-11-13T02:12:19.105Z,0
2016-11-13T02:13:32.683Z,0
2016-11-13T02:14:46.303Z,0
2016-11-13T02:15:59.805Z,0
2016-11-13T02:17:13.398Z,0
2016-11-13T02:18:27.345Z,0
2016-11-13T02:19:40.344Z,0
2016-11-13T02:20:54.098Z,0
2016-11-13T02:22:07.580Z,0
2016-11-13T02:23:20.429Z,0
2016-11-13T02:24:33.696Z,0
2016-11-13T02:26:17.956Z,0
2016-11-13T02:27:31.537Z,0
2016-11-13T02:28:44.845Z,0
2016-11-13T02:29:58.406Z,0
2016-11-13T02:31:11.441Z,0
2016-11-13T02:32:24.539Z,0
2016-11-13T02:33:38.101Z,0
2016-11-13T02:34:51.656Z,0
2016-11-13T02:36:05.276Z,0
2016-11-13T02:37:18.853Z,0
2016-11-13T02:38:31.879Z,0
2016-11-13T02:39:45.405Z,0
2016-11-13T02:40:58.936Z,0
2016-11-13T02:42:12.525Z,0
2016-11-13T02:43:25.556Z,0
2016-11-13T02:44:38.642Z,0
2016-11-13T02:45:52.161Z,0
2016-11-13T02:47:05.714Z,0
2016-11-13T02:48:18.726Z,0
2016-11-13T02:49:32.296Z,0
2016-11-13T02:50:45.350Z,0
2016-11-13T02:51:58.877Z,0
2016-11-13T02:53:12.488Z,0
2016-11-13T02:54:25.485Z,0
2016-11-13T02:55:38.464Z,0
2016-11-13T02:56:52.082Z,0
2016-11-13T02:58:05.640Z,0
2016-11-13T02:59:19.263Z,0
2016-11-13T03:00:32.934Z,0
2016-11-13T03:01:45.944Z,0
2016-11-13T03:02:59.477Z,0
2016-11-13T03:04:13.074Z,0
2016-11-13T03:05:26.176Z,0
2016-11-13T03:06:39.227Z,0
2016-11-13T03:07:52.287Z,0
2016-11-13T03:09:05.542Z,0
2016-11-13T03:10:19.164Z,0
2016-11-13T03:11:32.731Z,0
2016-11-13T03:12:45.750Z,0
2016-11-13T03:13:59.357Z,0
2016-11-13T03:15:12.577Z,0
2016-11-13T03:16:26.085Z,0
2016-11-13T03:17:39.649Z,0
2016-11-13T03:18:52.722Z,0
2016-11-13T03:20:06.236Z,0
2016-11-13T03:21:19.885Z,0
2016-11-13T03:22:33.530Z,0
2016-11-13T03:23:47.123Z,0
2016-11-13T03:25:00.734Z,0
2016-11-13T03:26:14.305Z,0
2016-11-13T03:27:27.826Z,0
2016-11-13T03:28:41.482Z,0
2016-11-13T03:29:54.477Z,0
2016-11-13T03:31:08.073Z,0
2016-11-13T03:32:21.642Z,0
2016-11-13T03:33:35.126Z,0
2016-11-13T03:34:48.710Z,0
2016-11-13T03:36:01.861Z,0
2016-11-13T03:37:15.470Z,0
2016-11-13T03:38:28.492Z,0
2016-11-13T03:39:42.022Z,0
2016-11-13T03:40:55.607Z,0
2016-11-13T03:42:09.184Z,0
2016-11-13T03:43:22.618Z,0
2016-11-13T03:44:36.191Z,0
2016-11-13T03:45:49.738Z,0
2016-11-13T03:47:03.445Z,0
2016-11-13T03:48:17.008Z,0
2016-11-13T03:49:30.656Z,0
2016-11-13T03:50:43.715Z,0
2016-11-13T03:51:57.314Z,0
2016-11-13T03:53:10.355Z,0
2016-11-13T03:54:24.305Z,0
2016-11-13T03:55:37.849Z,0
2016-11-13T03:56:51.480Z,0
2016-11-13T03:58:05.019Z,0
2016-11-13T03:59:18.581Z,0
2016-11-13T04:00:32.132Z,0
2016-11-13T04:01:45.731Z,0
2016-11-13T04:02:58.744Z,0
2016-11-13T04:04:11.831Z,0
2016-11-13T04:05:24.890Z,0
2016-11-13T04:06:38.466Z,0
2016-11-13T04:07:51.801Z,0
2016-11-13T04:09:05.402Z,0
2016-11-13T04:10:18.143Z,0
2016-11-13T04:11:31.701Z,0
2016-11-13T04:12:44.949Z,0
2016-11-13T04:13:58.617Z,0
2016-11-13T04:15:12.105Z,0
2016-11-13T04:16:25.524Z,0
2016-11-13T04:17:39.125Z,0
2016-11-13T04:18:52.132Z,0
2016-11-13T04:20:05.153Z,0
2016-11-13T04:21:18.213Z,0
2016-11-13T04:22:31.829Z,0
2016-11-13T04:23:45.350Z,0
2016-11-13T04:24:58.530Z,0
2016-11-13T04:26:12.117Z,0
2016-11-13T04:27:25.701Z,0
2016-11-13T04:28:38.759Z,0
2016-11-13T04:29:52.291Z,0
2016-11-13T04:31:05.871Z,0
2016-11-13T04:32:19.451Z,0
2016-11-13T04:33:33.028Z,0
2016-11-13T04:34:46.654Z,0
2016-11-13T04:36:00.240Z,0
2016-11-13T04:37:13.348Z,0
2016-11-13T04:38:26.918Z,0
2016-11-13T04:39:40.566Z,0
2016-11-13T04:40:54.302Z,0
2016-11-13T04:42:07.867Z,0
2016-11-13T04:43:21.219Z,0
2016-11-13T04:44:34.839Z,0
2016-11-13T04:45:48.390Z,0
2016-11-13T04:47:02.016Z,0
2016-11-13T04:48:15.153Z,0
2016-11-13T04:49:28.810Z,0
2016-11-13T04:50:42.443Z,0
2016-11-13T04:51:55.919Z,0
2016-11-13T04:53:40.149Z,0
2016-11-13T04:54:53.175Z,0
2016-11-13T04:56:06.746Z,0
2016-11-13T04:57:20.431Z,0
2016-11-13T04:58:34.140Z,0
2016-11-13T04:59:48.124Z,0
2016-11-13T05:01:01.203Z,0
2016-11-13T05:02:15.028Z,0
2016-11-13T05:03:28.690Z,0
2016-11-13T05:04:42.271Z,0
2016-11-13T05:05:55.812Z,0
2016-11-13T05:07:08.892Z,0
2016-11-13T05:08:22.507Z,0
2016-11-13T05:09:36.051Z,0
2016-11-13T05:10:49.719Z,0
2016-11-13T05:12:02.834Z,0
2016-11-13T05:13:15.834Z,0
2016-11-13T05:14:29.358Z,0
2016-11-13T05:15:42.939Z,0
2016-11-13T05:16:55.781Z,0
2016-11-13T05:18:09.342Z,0
2016-11-13T05:19:22.924Z,0
2016-11-13T05:20:36.543Z,0
2016-11-13T05:21:50.157Z,0
2016-11-13T05:23:03.161Z,0
2016-11-13T05:24:16.167Z,0
2016-11-13T05:25:29.181Z,0
2016-11-13T05:26:42.467Z,0
2016-11-13T05:27:55.462Z,0
2016-11-13T05:29:08.449Z,0
2016-11-13T05:30:22.010Z,0
2016-11-13T05:31:35.586Z,0
2016-11-13T05:32:49.135Z,0
2016-11-13T05:34:02.732Z,0
2016-11-13T05:35:16.286Z,0
2016-11-13T05:36:29.356Z,0
2016-11-13T05:37:42.645Z,0
2016-11-13T05:38:56.259Z,0
2016-11-13T05:40:09.957Z,0
2016-11-13T05:41:23.573Z,0
2016-11-13T05:42:36.854Z,0
2016-11-13T05:43:50.431Z,0
2016-11-13T05:45:03.980Z,0
2016-11-13T05:46:17.074Z,0
2016-11-13T05:47:30.660Z,0
2016-11-13T05:48:43.728Z,0
2016-11-13T05:49:57.417Z,0
2016-11-13T05:51:10.497Z,0
2016-11-13T05:52:24.380Z,0
2016-11-13T05:53:37.401Z,0
2016-11-13T05:54:49.870Z,0
2016-11-13T05:56:03.341Z,0
2016-11-13T05:57:16.894Z,0
2016-11-13T05:58:30.440Z,0
2016-11-13T05:59:44.039Z,0
2016-11-13T06:00:57.669Z,0
2016-11-13T06:02:10.685Z,0
2016-11-13T06:03:24.330Z,0
2016-11-13T06:04:36.857Z,0
2016-11-13T06:05:50.475Z,0
2016-11-13T06:07:04.085Z,0
2016-11-13T06:08:17.618Z,0
2016-11-13T06:09:31.208Z,0
2016-11-13T06:11:15.901Z,0
2016-11-13T06:12:28.938Z,0
2016-11-13T06:13:42.459Z,0
2016-11-13T06:14:56.042Z,0
2016-11-13T06:16:09.573Z,0
2016-11-13T06:17:23.191Z,0
2016-11-13T06:18:36.460Z,0
2016-11-13T06:19:49.445Z,0
2016-11-13T06:21:03.000Z,0
2016-11-13T06:22:16.562Z,0
2016-11-13T06:23:30.137Z,0
2016-11-13T06:24:43.691Z,0
2016-11-13T06:25:57.486Z,0
2016-11-13T06:27:11.079Z,0
2016-11-13T06:28:24.655Z,0
2016-11-13T06:29:37.668Z,0
2016-11-13T06:30:51.257Z,0
2016-11-13T06:32:04.908Z,0
2016-11-13T06:33:18.389Z,0
2016-11-13T06:34:31.954Z,0
2016-11-13T06:35:45.025Z,0
2016-11-13T06:36:58.694Z,0
2016-11-13T06:38:11.774Z,0
2016-11-13T06:39:25.497Z,0
2016-11-13T06:40:39.082Z,0
2016-11-13T06:41:52.645Z,0
2016-11-13T06:43:05.701Z,0
2016-11-13T06:44:19.295Z,0
2016-11-13T06:45:32.923Z,0
2016-11-13T06:46:46.580Z,0
2016-11-13T06:47:59.589Z,0
2016-11-13T06:49:12.846Z,0
2016-11-13T06:50:25.911Z,0
2016-11-13T06:51:38.951Z,0
2016-11-13T06:52:52.575Z,0
2016-11-13T06:54:06.185Z,0
2016-11-13T06:55:19.204Z,0
2016-11-13T06:56:32.763Z,0
2016-11-13T06:57:46.274Z,0
2016-11-13T06:58:59.294Z,0
2016-11-13T07:00:12.275Z,0
2016-11-13T07:01:25.856Z,0
2016-11-13T07:02:39.426Z,0
2016-11-13T07:03:53.026Z,0
2016-11-13T07:05:04.999Z,0
2016-11-13T07:06:18.520Z,0
2016-11-13T07:07:32.081Z,0
2016-11-13T07:08:45.660Z,0
2016-11-13T07:09:59.229Z,0
2016-11-13T07:11:12.832Z,0
2016-11-13T07:12:26.370Z,0
2016-11-13T07:13:39.931Z,0
2016-11-13T07:14:53.524Z,0
2016-11-13T07:16:07.065Z,0
2016-11-13T07:17:20.583Z,0
2016-11-13T07:18:34.086Z,0
2016-11-13T07:19:47.637Z,0
2016-11-13T07:21:00.507Z,0
2016-11-13T07:22:13.585Z,0
2016-11-13T07:23:27.560Z,0
2016-11-13T07:24:41.227Z,0
2016-11-13T07:25:54.327Z,0
2016-11-13T07:27:07.062Z,0
2016-11-13T07:28:20.679Z,0
2016-11-13T07:29:34.302Z,0
2016-11-13T07:30:48.266Z,0
2016-11-13T07:32:01.936Z,0
2016-11-13T07:33:14.700Z,0
2016-11-13T07:34:28.688Z,0
2016-11-13T07:35:42.352Z,0
2016-11-13T07:36:55.412Z,0
2016-11-13T07:38:08.456Z,0
2016-11-13T07:39:21.477Z,0
2016-11-13T07:40:34.491Z,0
2016-11-13T07:41:48.226Z,0
2016-11-13T07:43:01.184Z,0
2016-11-13T07:44:14.722Z,0
2016-11-13T07:45:28.662Z,0
2016-11-13T07:46:42.329Z,0
2016-11-13T07:47:55.378Z,0
2016-11-13T07:49:08.981Z,0
2016-11-13T07:50:22.515Z,0
2016-11-13T07:51:36.046Z,0
2016-11-13T07:52:49.577Z,0
2016-11-13T07:54:03.105Z,0
2016-11-13T07:55:15.874Z,0
2016-11-13T07:56:28.870Z,0
2016-11-13T07:57:42.463Z,0
2016-11-13T07:58:56.022Z,0
2016-11-13T08:00:08.535Z,0
2016-11-13T08:01:22.158Z,0
2016-11-13T08:02:35.745Z,0
2016-11-13T08:03:49.130Z,0
2016-11-13T08:05:02.683Z,0
2016-11-13T08:06:16.291Z,0
2016-11-13T08:07:29.292Z,0
2016-11-13T08:08:42.245Z,4
2016-11-13T08:09:55.382Z,4
2016-11-13T08:11:08.391Z,4
2016-11-13T08:12:53.083Z,4
2016-11-13T08:14:06.200Z,4
2016-11-13T08:15:18.924Z,4
2016-11-13T08:16:31.990Z,4
2016-11-13T08:17:44.578Z,8
2016-11-13T08:18:57.575Z,8
2016-11-13T08:20:11.207Z,8
2016-11-13T08:21:24.303Z,4
2016-11-13T08:22:37.857Z,8
2016-11-13T08:23:51.456Z,8
2016-11-13T08:25:04.710Z,12
2016-11-13T08:26:18.313Z,12
2016-11-13T08:27:31.832Z,12
2016-11-13T08:28:45.084Z,16
2016-11-13T08:29:58.765Z,16
2016-11-13T08:31:12.374Z,20
2016-11-13T08:32:57.049Z,20
2016-11-13T08:34:10.020Z,20
2016-11-13T08:35:23.621Z,20
2016-11-13T08:37:08.312Z,24
2016-11-13T08:38:21.838Z,28
2016-11-13T08:39:34.893Z,36
2016-11-13T08:40:48.412Z,40
2016-11-13T08:42:02.035Z,40
2016-11-13T08:43:46.749Z,44
2016-11-13T08:44:59.285Z,44
2016-11-13T08:46:12.835Z,40
2016-11-13T08:47:26.350Z,36
2016-11-13T08:48:39.892Z,52
2016-11-13T08:49:52.899Z,56
2016-11-13T08:51:06.516Z,48
2016-11-13T08:52:20.071Z,56
2016-11-13T08:53:33.175Z,56
2016-11-13T08:54:45.950Z,72
2016-11-13T08:55:58.463Z,64
2016-11-13T08:57:11.954Z,68
2016-11-13T08:58:25.212Z,80
2016-11-13T08:59:38.812Z,76
2016-11-13T09:00:52.460Z,72
2016-11-13T09:02:05.484Z,72
2016-11-13T09:03:18.521Z,84
2016-11-13T09:04:32.131Z,84
2016-11-13T09:05:45.614Z,80
2016-11-13T09:06:58.772Z,88
2016-11-13T09:08:12.328Z,104
2016-11-13T09:09:25.864Z,84
2016-11-13T09:10:39.420Z,112
2016-11-13T09:11:53.097Z,132
2016-11-13T09:13:06.132Z,144
2016-11-13T09:14:19.139Z,140
2016-11-13T09:15:32.660Z,168
2016-11-13T09:16:46.193Z,176
2016-11-13T09:17:59.741Z,192
2016-11-13T09:19:13.269Z,196
2016-11-13T09:20:26.841Z,188
2016-11-13T09:21:40.365Z,220
2016-11-13T09:22:54.002Z,216
2016-11-13T09:24:07.109Z,184
2016-11-13T09:25:20.218Z,208
2016-11-13T09:26:33.235Z,276
2016-11-13T09:27:46.818Z,268
2016-11-13T09:28:59.909Z,260
2016-11-13T09:30:13.467Z,304
2016-11-13T09:31:27.017Z,280
2016-11-13T09:32:39.950Z,304
2016-11-13T09:33:53.051Z,280
2016-11-13T09:35:06.387Z,276
2016-11-13T09:36:19.848Z,276
2016-11-13T09:37:33.750Z,300
2016-11-13T09:38:46.862Z,304
2016-11-13T09:40:00.545Z,344
2016-11-13T09:41:14.110Z,252
2016-11-13T09:42:27.713Z,256
2016-11-13T09:43:39.659Z,292
2016-11-13T09:44:53.286Z,332
2016-11-13T09:46:06.837Z,340
2016-11-13T09:47:20.381Z,328
2016-11-13T09:48:33.945Z,356
2016-11-13T09:49:46.966Z,356
2016-11-13T09:51:00.520Z,372
2016-11-13T09:52:13.910Z,356
2016-11-13T09:53:27.706Z,424
2016-11-13T09:54:40.985Z,456
2016-11-13T09:55:53.999Z,408
2016-11-13T09:57:07.562Z,376
2016-11-13T09:58:21.429Z,444
2016-11-13T09:59:34.988Z,404
2016-11-13T10:00:48.297Z,324
2016-11-13T10:02:01.558Z,340
2016-11-13T10:03:14.598Z,368
2016-11-13T10:04:28.168Z,356
2016-11-13T10:05:41.759Z,328
2016-11-13T10:06:55.102Z,436
2016-11-13T10:08:08.636Z,372
2016-11-13T10:09:21.710Z,392
2016-11-13T10:10:35.294Z,368
2016-11-13T10:11:48.341Z,352
2016-11-13T10:13:01.409Z,292
2016-11-13T10:14:15.259Z,364
2016-11-13T10:15:28.331Z,420
2016-11-13T10:16:40.301Z,288
2016-11-13T10:17:54.865Z,276
2016-11-13T10:19:07.890Z,320
2016-11-13T10:20:21.474Z,348
2016-11-13T10:21:35.013Z,336
2016-11-13T10:22:48.351Z,324
2016-11-13T10:24:01.876Z,308
2016-11-13T10:25:15.447Z,288
2016-11-13T10:26:27.925Z,404
2016-11-13T10:27:39.957Z,336
2016-11-13T10:28:53.046Z,288
2016-11-13T10:30:06.127Z,372
2016-11-13T10:31:19.096Z,340
2016-11-13T10:32:32.657Z,268
2016-11-13T10:33:46.176Z,308
2016-11-13T10:34:59.689Z,284
2016-11-13T10:36:13.201Z,220
2016-11-13T10:37:26.758Z,280
2016-11-13T10:38:40.312Z,424
2016-11-13T10:39:53.903Z,400
2016-11-13T10:41:07.528Z,408
2016-11-13T10:42:21.447Z,580
2016-11-13T10:43:34.987Z,568
2016-11-13T10:44:48.549Z,480
2016-11-13T10:46:02.125Z,392
2016-11-13T10:47:15.693Z,312
2016-11-13T10:48:29.211Z,316
2016-11-13T10:49:42.175Z,392
2016-11-13T10:50:55.724Z,356
2016-11-13T10:52:09.305Z,376
2016-11-13T10:53:21.861Z,308
2016-11-13T10:54:35.463Z,340
2016-11-13T10:55:48.698Z,308
2016-11-13T10:57:02.245Z,388
2016-11-13T10:58:16.160Z,372
2016-11-13T10:59:29.688Z,344
2016-11-13T11:00:43.252Z,328
2016-11-13T11:01:56.872Z,340
2016-11-13T11:03:10.474Z,432
2016-11-13T11:04:54.637Z,328
2016-11-13T11:06:07.654Z,332
2016-11-13T11:07:21.473Z,328
2016-11-13T11:08:35.042Z,292
2016-11-13T11:09:48.384Z,260
2016-11-13T11:11:01.397Z,288
2016-11-13T11:12:14.427Z,336
2016-11-13T11:13:27.522Z,352
2016-11-13T11:14:40.798Z,356
2016-11-13T11:15:54.512Z,340
2016-11-13T11:17:07.498Z,396
2016-11-13T11:18:21.670Z,396
2016-11-13T11:19:34.463Z,392
2016-11-13T11:20:48.355Z,424
2016-11-13T11:22:01.374Z,408
2016-11-13T11:23:14.393Z,412
2016-11-13T11:26:11.771Z,404
2016-11-13T11:27:25.222Z,496
2016-11-13T11:28:38.791Z,532
2016-11-13T11:29:51.765Z,588
2016-11-13T11:31:05.355Z,600
2016-11-13T11:32:18.365Z,512
2016-11-13T11:33:31.392Z,584
2016-11-13T11:34:44.080Z,620
2016-11-13T11:35:57.106Z,720
2016-11-13T11:37:10.620Z,612
2016-11-13T11:38:24.563Z,660
2016-11-13T11:39:38.693Z,532
2016-11-13T11:40:52.199Z,640
2016-11-13T11:42:05.719Z,724
2016-11-13T11:43:19.335Z,828
2016-11-13T11:44:32.329Z,976
2016-11-13T11:45:45.393Z,940
2016-11-13T11:46:58.982Z,904
2016-11-13T11:48:12.634Z,884
2016-11-13T11:49:25.691Z,908
2016-11-13T11:51:09.829Z,976
2016-11-13T11:52:23.506Z,964
2016-11-13T11:53:36.561Z,928
2016-11-13T11:54:50.180Z,1000
2016-11-13T11:56:03.200Z,996
2016-11-13T11:57:16.758Z,968
2016-11-13T11:58:30.301Z,912
2016-11-13T11:59:43.911Z,884
2016-11-13T12:00:56.899Z,924
2016-11-13T12:02:10.018Z,912
2016-11-13T12:03:22.556Z,900
2016-11-13T12:04:35.577Z,852
2016-11-13T12:05:49.089Z,788
2016-11-13T12:07:02.162Z,740
2016-11-13T12:08:15.243Z,748
2016-11-13T12:09:28.862Z,940
2016-11-13T12:10:42.441Z,968
2016-11-13T12:11:55.478Z,1044
2016-11-13T12:13:09.147Z,1016
2016-11-13T12:14:22.839Z,892
2016-11-13T12:15:35.833Z,744
2016-11-13T12:16:49.350Z,600
2016-11-13T12:18:02.987Z,736
2016-11-13T12:19:16.049Z,892
2016-11-13T12:20:29.547Z,1096
2016-11-13T12:21:42.587Z,1092
2016-11-13T12:22:56.188Z,952
2016-11-13T12:24:09.720Z,988
2016-11-13T12:25:22.996Z,876
2016-11-13T12:26:36.532Z,880
2016-11-13T12:27:49.508Z,944
2016-11-13T12:29:02.804Z,1084
2016-11-13T12:30:15.816Z,1156
2016-11-13T12:31:29.132Z,1040
2016-11-13T12:32:42.144Z,844
2016-11-13T12:33:55.179Z,996
2016-11-13T12:35:08.768Z,1112
2016-11-13T12:36:22.328Z,976
2016-11-13T12:37:35.396Z,860
2016-11-13T12:38:49.008Z,1008
2016-11-13T12:40:02.628Z,1004
2016-11-13T12:41:16.231Z,972
2016-11-13T12:42:29.925Z,916
2016-11-13T12:43:43.486Z,932
2016-11-13T12:44:56.566Z,820
2016-11-13T12:46:10.085Z,744
2016-11-13T12:47:23.204Z,920
2016-11-13T12:48:36.765Z,1064
2016-11-13T12:49:49.265Z,1104
2016-11-13T12:51:02.566Z,968
2016-11-13T12:52:16.079Z,1012
2016-11-13T12:53:29.677Z,1096
2016-11-13T12:54:42.905Z,1044
2016-11-13T12:55:56.424Z,920
2016-11-13T12:57:09.276Z,816
2016-11-13T12:58:22.848Z,976
2016-11-13T12:59:35.875Z,1084
2016-11-13T13:00:49.437Z,1016
2016-11-13T13:02:03.040Z,1016
2016-11-13T13:03:16.064Z,944
2016-11-13T13:04:29.642Z,968
2016-11-13T13:05:43.234Z,928
2016-11-13T13:06:56.746Z,988
2016-11-13T13:08:10.340Z,888
2016-11-13T13:09:23.318Z,796
2016-11-13T13:10:36.958Z,836
2016-11-13T13:11:50.523Z,808
2016-11-13T13:13:04.099Z,684
2016-11-13T13:14:16.884Z,752
2016-11-13T13:15:29.980Z,764
2016-11-13T13:16:43.012Z,976
2016-11-13T13:17:56.604Z,904
2016-11-13T13:19:10.235Z,848
2016-11-13T13:20:23.818Z,940
2016-11-13T13:21:37.085Z,1068
2016-11-13T13:22:50.635Z,1164
2016-11-13T13:24:03.598Z,1092
2016-11-13T13:25:17.226Z,1156
2016-11-13T13:26:30.825Z,1060
2016-11-13T13:27:44.183Z,1060
2016-11-13T13:28:57.696Z,1108
2016-11-13T13:30:11.282Z,1076
2016-11-13T13:31:24.891Z,1116
2016-11-13T13:32:38.451Z,1404
2016-11-13T13:33:52.062Z,1492
2016-11-13T13:35:05.652Z,1256
2016-11-13T13:36:19.241Z,1048
2016-11-13T13:37:32.251Z,1176
2016-11-13T13:38:45.833Z,1192
2016-11-13T13:39:59.410Z,1340
2016-11-13T13:41:13.023Z,1328
2016-11-13T13:42:26.702Z,1296
2016-11-13T13:43:39.770Z,1408
2016-11-13T13:44:53.322Z,1384
2016-11-13T13:46:06.338Z,1180
2016-11-13T13:47:19.358Z,964
2016-11-13T13:48:32.348Z,780
2016-11-13T13:49:45.446Z,696
2016-11-13T13:50:58.525Z,688
2016-11-13T13:52:12.124Z,804
2016-11-13T13:53:25.850Z,712
2016-11-13T13:54:37.859Z,640
2016-11-13T13:55:51.634Z,508
2016-11-13T13:57:03.640Z,432
2016-11-13T13:58:16.679Z,628
2016-11-13T13:59:30.223Z,868
2016-11-13T14:00:43.795Z,764
2016-11-13T14:01:57.587Z,664
2016-11-13T14:03:11.128Z,592
2016-11-13T14:04:24.179Z,836
2016-11-13T14:05:37.780Z,932
2016-11-13T14:06:51.604Z,916
2016-11-13T14:08:05.173Z,796
2016-11-13T14:09:18.732Z,928
2016-11-13T14:10:32.326Z,1048
2016-11-13T14:11:45.946Z,1000
2016-11-13T14:12:59.465Z,1052
2016-11-13T14:14:12.511Z,944
2016-11-13T14:15:26.128Z,896
2016-11-13T14:16:38.647Z,912
2016-11-13T14:17:51.999Z,856
2016-11-13T14:19:05.632Z,848
2016-11-13T14:20:18.630Z,796
2016-11-13T14:21:31.356Z,696
2016-11-13T14:22:44.885Z,624
2016-11-13T14:23:58.474Z,524
2016-11-13T14:25:12.005Z,364
2016-11-13T14:26:25.832Z,324
2016-11-13T14:27:39.385Z,384
2016-11-13T14:28:52.469Z,436
2016-11-13T14:30:05.994Z,504
2016-11-13T14:31:18.775Z,484
2016-11-13T14:32:32.381Z,576
2016-11-13T14:33:44.585Z,556
2016-11-13T14:34:57.761Z,560
2016-11-13T14:36:10.835Z,544
2016-11-13T14:37:24.775Z,544
2016-11-13T14:38:37.794Z,564
2016-11-13T14:39:50.789Z,632
2016-11-13T14:41:04.347Z,728
2016-11-13T14:42:17.462Z,964
2016-11-13T14:43:31.077Z,1096
2016-11-13T14:44:44.612Z,1032
2016-11-13T14:45:57.661Z,664
2016-11-13T14:47:11.183Z,696
2016-11-13T14:48:24.735Z,544
2016-11-13T14:49:37.777Z,568
2016-11-13T14:50:51.611Z,784
2016-11-13T14:52:05.159Z,640
2016-11-13T14:53:18.715Z,524
2016-11-13T14:54:32.337Z,412
2016-11-13T14:55:45.885Z,484
2016-11-13T14:56:59.501Z,468
2016-11-13T14:58:13.082Z,672
2016-11-13T14:59:26.692Z,768
2016-11-13T15:00:40.273Z,804
2016-11-13T15:01:53.897Z,692
2016-11-13T15:03:07.523Z,536
2016-11-13T15:04:52.199Z,484
2016-11-13T15:06:05.797Z,460
2016-11-13T15:07:18.879Z,296
2016-11-13T15:08:31.970Z,240
2016-11-13T15:09:45.329Z,256
2016-11-13T15:10:58.685Z,432
2016-11-13T15:12:11.873Z,656
2016-11-13T15:13:25.449Z,800
2016-11-13T15:14:37.985Z,780
2016-11-13T15:15:51.656Z,776
2016-11-13T15:17:05.181Z,880
2016-11-13T15:18:18.542Z,848
2016-11-13T15:19:31.668Z,808
2016-11-13T15:20:45.417Z,720
2016-11-13T15:21:58.692Z,596
2016-11-13T15:23:11.656Z,568
2016-11-13T15:24:24.728Z,604
2016-11-13T15:25:38.253Z,596
2016-11-13T15:26:51.783Z,528
2016-11-13T15:28:05.346Z,568
2016-11-13T15:29:18.953Z,616
2016-11-13T15:31:40.854Z,548
2016-11-13T15:32:54.489Z,664
2016-11-13T15:34:08.097Z,732
2016-11-13T15:35:21.979Z,704
2016-11-13T15:36:35.591Z,564
2016-11-13T15:37:49.176Z,760
2016-11-13T15:39:01.679Z,944
2016-11-13T15:40:15.299Z,1016
2016-11-13T15:41:28.948Z,964
2016-11-13T15:42:41.968Z,1108
2016-11-13T15:43:55.011Z,928
2016-11-13T15:45:08.140Z,872
2016-11-13T15:46:22.088Z,1004
2016-11-13T15:47:35.705Z,992
2016-11-13T15:48:49.385Z,720
2016-11-13T15:50:02.826Z,596
2016-11-13T15:51:16.469Z,668
2016-11-13T15:52:30.065Z,700
2016-11-13T15:53:43.113Z,776
2016-11-13T15:54:56.516Z,716
2016-11-13T15:56:10.177Z,604
2016-11-13T15:57:23.706Z,444
2016-11-13T15:58:37.288Z,424
2016-11-13T15:59:50.301Z,452
2016-11-13T16:01:03.885Z,532
2016-11-13T16:02:16.938Z,468
2016-11-13T16:03:30.032Z,448
2016-11-13T16:04:43.654Z,472
2016-11-13T16:05:57.319Z,504
2016-11-13T16:07:10.943Z,468
2016-11-13T16:08:24.473Z,420
2016-11-13T16:09:38.080Z,652
2016-11-13T16:10:51.892Z,612
2016-11-13T16:12:05.468Z,476
2016-11-13T16:13:19.088Z,420
2016-11-13T16:14:32.099Z,480
2016-11-13T16:15:45.847Z,504
2016-11-13T16:16:59.459Z,504
2016-11-13T16:18:13.158Z,628
2016-11-13T16:19:25.979Z,816
2016-11-13T16:20:39.576Z,960
2016-11-13T16:21:53.168Z,928
2016-11-13T16:23:06.699Z,1040
2016-11-13T16:24:20.282Z,980
2016-11-13T16:25:33.937Z,1008
2016-11-13T16:26:46.987Z,964
2016-11-13T16:28:00.095Z,1068
2016-11-13T16:29:13.687Z,932
2016-11-13T16:30:26.831Z,812
2016-11-13T16:31:40.451Z,792
2016-11-13T16:32:54.080Z,788
2016-11-13T16:34:06.848Z,776
2016-11-13T16:35:20.455Z,652
2016-11-13T16:36:33.461Z,676
2016-11-13T16:37:46.931Z,768
2016-11-13T16:39:00.565Z,780
2016-11-13T16:40:13.820Z,776
2016-11-13T16:41:27.459Z,704
2016-11-13T16:42:41.093Z,696
2016-11-13T16:43:54.113Z,732
2016-11-13T16:45:07.634Z,656
2016-11-13T16:46:20.909Z,672
2016-11-13T16:47:33.911Z,664
2016-11-13T16:48:47.445Z,496
2016-11-13T16:50:00.513Z,476
2016-11-13T16:51:13.612Z,464
2016-11-13T16:52:27.140Z,604
2016-11-13T16:53:40.747Z,484
2016-11-13T16:54:54.094Z,360
2016-11-13T16:56:07.662Z,508
2016-11-13T16:57:20.238Z,664
2016-11-13T16:58:33.258Z,788
2016-11-13T16:59:46.802Z,788
2016-11-13T17:01:00.094Z,748
2016-11-13T17:02:13.688Z,696
2016-11-13T17:03:58.337Z,648
2016-11-13T17:05:11.958Z,608
2016-11-13T17:06:25.562Z,572
2016-11-13T17:07:38.884Z,460
2016-11-13T17:08:51.934Z,500
2016-11-13T17:10:05.524Z,492
2016-11-13T17:11:18.959Z,428
2016-11-13T17:12:32.081Z,432
2016-11-13T17:15:30.468Z,392
2016-11-13T17:16:44.054Z,452
2016-11-13T17:17:57.611Z,420
2016-11-13T17:19:10.953Z,352
2016-11-13T17:20:24.536Z,448
2016-11-13T17:21:37.105Z,436
2016-11-13T17:22:50.713Z,436
2016-11-13T17:24:04.314Z,508
2016-11-13T17:25:17.910Z,472
2016-11-13T17:26:31.518Z,428
2016-11-13T17:27:44.572Z,412
2016-11-13T17:28:58.265Z,368
2016-11-13T17:30:11.865Z,464
2016-11-13T17:31:25.218Z,400
2016-11-13T17:32:38.213Z,416
2016-11-13T17:33:52.046Z,512
2016-11-13T17:35:05.748Z,544